Jose M.entrecanales — EADD — position and weather

sailwx.info

Track history (hours):
 
Tides and Currents Weather Stations Pressure Air Temp Water Temp Dewpoint Dewpoint Depression Visibility Wind Speed Wind Dir Waves Ship Positions

Jose M.entrecanales

Last reported at 2017-Nov-23 05:30 UTC. Time now 2017-Nov-23 05:51 UTC.
Position N 29°30' W 014°58'.

Length 210 m; draft 6.7 m.

Type: Ship (hazmat cat A). MMSI: 225430000.

Date/timePositionNaut miles runAvg speedWind from/ knotsBaromVisibWave heightAir tempDewpointWater temp
2017-Nov-23 05:30N 29°30' W 014°58'1018.9
2017-Nov-23 05:00N 29°23' W 015°06'918.9
2017-Nov-23 04:30N 29°17' W 015°13'918.8
2017-Nov-23 04:00N 29°10' W 015°21'918.6
2017-Nov-23 03:30N 29°04' W 015°29'918.4
2017-Nov-23 03:01N 28°57' W 015°35'918.7
2017-Nov-23 02:30N 28°50' W 015°43'918.7
2017-Nov-23 02:01N 28°43' W 015°50'918.9
2017-Nov-23 01:30N 28°37' W 015°58'1019.0
2017-Nov-23 01:00N 28°30' W 016°06'815.7
2017-Nov-23 00:31N 28°29' W 016°14'0 0.3
2017-Nov-22 23:56N 28°29' W 016°15'0 0.0
2017-Nov-22 22:38N 28°29' W 016°15'0 0.0
2017-Nov-22 22:23N 28°29' W 016°15'0 0.0
2017-Nov-22 21:53N 28°29' W 016°15'0 0.0
2017-Nov-22 21:05N 28°29' W 016°15'0 0.0
2017-Nov-22 20:50N 28°29' W 016°15'0 0.0
2017-Nov-22 19:49N 28°29' W 016°15'2 3.5
2017-Nov-22 19:12N 28°29' W 016°12'  
2017-Nov-20 00:29N 28°35' W 016°01'1218.4
2017-Nov-19 23:50N 28°43' W 015°51'618.7
2017-Nov-19 23:30N 28°48' W 015°46'918.5
2017-Nov-19 23:00N 28°54' W 015°38'4718.4
2017-Nov-19 20:28N 29°27' W 015°00'  
2017-Nov-16 04:57N 29°30' W 014°57'818.7
2017-Nov-16 04:30N 29°25' W 015°04'2118.5
2017-Nov-16 03:22N 29°10' W 015°21'718.5
2017-Nov-16 02:59N 29°05' W 015°27'918.6
2017-Nov-16 02:29N 28°58' W 015°35'918.6
2017-Nov-16 02:00N 28°52' W 015°42'918.7
2017-Nov-16 01:30N 28°45' W 015°50'918.7
2017-Nov-16 01:00N 28°39' W 015°57'1019.2
2017-Nov-16 00:30N 28°32' W 016°04'916.3
2017-Nov-15 23:57N 28°29' W 016°14'1 1.1
2017-Nov-15 23:30N 28°29' W 016°15'0 0.0
2017-Nov-15 23:01N 28°29' W 016°15'0 0.0
2017-Nov-15 22:24N 28°29' W 016°15'0 0.0
2017-Nov-15 21:59N 28°29' W 016°15'0 0.0
2017-Nov-15 21:30N 28°29' W 016°15'0 0.0
2017-Nov-15 21:00N 28°29' W 016°15'0 0.0
2017-Nov-15 20:30N 28°29' W 016°15'0 0.0
2017-Nov-15 20:00N 28°29' W 016°15'0 0.2
2017-Nov-15 19:29N 28°28' W 016°15'816.3
2017-Nov-15 19:00N 28°31' W 016°06'16 0.8
2017-Nov-14 23:47N 28°43' W 015°54'413.3
2017-Nov-14 23:30N 28°41' W 015°50'613.1
2017-Nov-14 23:00N 28°37' W 015°44'613.0
2017-Nov-14 22:30N 28°33' W 015°38'713.8
2017-Nov-14 22:00N 28°27' W 015°34'918.5
2017-Nov-14 21:30N 28°19' W 015°29'918.8
2017-Nov-14 21:01N 28°12' W 015°23'4 7.6
2017-Nov-14 20:30N 28°08' W 015°25'0 0.6
2017-Nov-14 20:00N 28°09' W 015°25'0 0.0
2017-Nov-14 19:30N 28°09' W 015°25'0 0.0
2017-Nov-14 19:00N 28°09' W 015°25'0 0.0
2017-Nov-14 18:30N 28°09' W 015°25'0 0.0
2017-Nov-14 18:00N 28°09' W 015°25'0 0.0
2017-Nov-14 17:30N 28°09' W 015°25'0 0.0
2017-Nov-14 17:00N 28°09' W 015°25'0 0.0
2017-Nov-14 16:30N 28°09' W 015°25'0 0.0
2017-Nov-14 16:00N 28°09' W 015°25'0 0.0
2017-Nov-14 15:31N 28°09' W 015°25'0 0.0
2017-Nov-14 15:01N 28°09' W 015°25'0 0.0
2017-Nov-14 14:31N 28°09' W 015°25'0 0.0
2017-Nov-14 14:01N 28°09' W 015°25'0 0.0
2017-Nov-14 13:31N 28°09' W 015°25'0 0.0
2017-Nov-14 13:01N 28°09' W 015°25'0 0.0
2017-Nov-14 12:31N 28°09' W 015°25'0 0.0
2017-Nov-14 12:00N 28°09' W 015°25'0 0.0
2017-Nov-14 11:31N 28°09' W 015°25'0 0.0
2017-Nov-14 11:00N 28°09' W 015°25'0 0.0
2017-Nov-14 10:31N 28°09' W 015°25'0 0.0
2017-Nov-14 10:01N 28°09' W 015°25'0 0.0
2017-Nov-14 09:31N 28°09' W 015°25'0 0.0
2017-Nov-14 09:01N 28°09' W 015°25'0 0.0
2017-Nov-14 08:30N 28°09' W 015°25'0 0.0
2017-Nov-14 08:00N 28°09' W 015°25'0 0.0
2017-Nov-14 07:30N 28°09' W 015°25'0 0.0
2017-Nov-14 07:00N 28°09' W 015°25'0 0.0
2017-Nov-14 06:30N 28°09' W 015°25'0 0.0
2017-Nov-14 06:00N 28°09' W 015°25'0 0.0
2017-Nov-14 05:30N 28°09' W 015°25'0 0.0
2017-Nov-14 05:00N 28°09' W 015°25'0 0.0
2017-Nov-14 04:30N 28°09' W 015°25'0 0.0
2017-Nov-14 04:00N 28°09' W 015°25'0 0.0
2017-Nov-14 03:30N 28°09' W 015°25'0 0.0
2017-Nov-14 03:00N 28°09' W 015°25'0 0.0
2017-Nov-14 02:30N 28°09' W 015°25'0 0.0
2017-Nov-14 02:00N 28°09' W 015°25'0 0.0
2017-Nov-14 01:31N 28°09' W 015°25'0 0.0
2017-Nov-14 01:00N 28°09' W 015°25'0 0.0
2017-Nov-14 00:31N 28°09' W 015°25'0 0.0
2017-Nov-14 00:01N 28°09' W 015°25'0 0.0
2017-Nov-13 23:30N 28°09' W 015°25'0 0.0
2017-Nov-13 23:01N 28°09' W 015°25'0 0.0
2017-Nov-13 22:31N 28°09' W 015°25'0 0.0
2017-Nov-13 22:00N 28°09' W 015°25'  
Track history (hours):
 
Tides and Currents Weather Stations Pressure Air Temp Water Temp Dewpoint Dewpoint Depression Visibility Wind Speed Wind Dir Waves Ship Positions

Jose M.entrecanales

Last reported at 2017-Nov-23 05:30 UTC. Time now 2017-Nov-23 05:51 UTC.
Position N 29°30' W 014°58'.

Length 210 m; draft 6.7 m.

Type: Ship (hazmat cat A). MMSI: 225430000.

Date/timePositionNaut miles runAvg speedWind from/ knotsBaromVisibWave heightAir tempDewpointWater temp
2017-Nov-23 05:30N 29°30' W 014°58'1018.9
2017-Nov-23 05:00N 29°23' W 015°06'918.9
2017-Nov-23 04:30N 29°17' W 015°13'918.8
2017-Nov-23 04:00N 29°10' W 015°21'918.6
2017-Nov-23 03:30N 29°04' W 015°29'918.4
2017-Nov-23 03:01N 28°57' W 015°35'918.7
2017-Nov-23 02:30N 28°50' W 015°43'918.7
2017-Nov-23 02:01N 28°43' W 015°50'918.9
2017-Nov-23 01:30N 28°37' W 015°58'1019.0
2017-Nov-23 01:00N 28°30' W 016°06'815.7
2017-Nov-23 00:31N 28°29' W 016°14'0 0.3
2017-Nov-22 23:56N 28°29' W 016°15'0 0.0
2017-Nov-22 22:38N 28°29' W 016°15'0 0.0
2017-Nov-22 22:23N 28°29' W 016°15'0 0.0
2017-Nov-22 21:53N 28°29' W 016°15'0 0.0
2017-Nov-22 21:05N 28°29' W 016°15'0 0.0
2017-Nov-22 20:50N 28°29' W 016°15'0 0.0
2017-Nov-22 19:49N 28°29' W 016°15'2 3.5
2017-Nov-22 19:12N 28°29' W 016°12'  
2017-Nov-20 00:29N 28°35' W 016°01'1218.4
2017-Nov-19 23:50N 28°43' W 015°51'618.7
2017-Nov-19 23:30N 28°48' W 015°46'918.5
2017-Nov-19 23:00N 28°54' W 015°38'4718.4
2017-Nov-19 20:28N 29°27' W 015°00'  
2017-Nov-16 04:57N 29°30' W 014°57'818.7
2017-Nov-16 04:30N 29°25' W 015°04'2118.5
2017-Nov-16 03:22N 29°10' W 015°21'718.5
2017-Nov-16 02:59N 29°05' W 015°27'918.6
2017-Nov-16 02:29N 28°58' W 015°35'918.6
2017-Nov-16 02:00N 28°52' W 015°42'918.7
2017-Nov-16 01:30N 28°45' W 015°50'918.7
2017-Nov-16 01:00N 28°39' W 015°57'1019.2
2017-Nov-16 00:30N 28°32' W 016°04'916.3
2017-Nov-15 23:57N 28°29' W 016°14'1 1.1
2017-Nov-15 23:30N 28°29' W 016°15'0 0.0
2017-Nov-15 23:01N 28°29' W 016°15'0 0.0
2017-Nov-15 22:24N 28°29' W 016°15'0 0.0
2017-Nov-15 21:59N 28°29' W 016°15'0 0.0
2017-Nov-15 21:30N 28°29' W 016°15'0 0.0
2017-Nov-15 21:00N 28°29' W 016°15'0 0.0
2017-Nov-15 20:30N 28°29' W 016°15'0 0.0
2017-Nov-15 20:00N 28°29' W 016°15'0 0.2
2017-Nov-15 19:29N 28°28' W 016°15'816.3
2017-Nov-15 19:00N 28°31' W 016°06'16 0.8
2017-Nov-14 23:47N 28°43' W 015°54'413.3
2017-Nov-14 23:30N 28°41' W 015°50'613.1
2017-Nov-14 23:00N 28°37' W 015°44'613.0
2017-Nov-14 22:30N 28°33' W 015°38'713.8
2017-Nov-14 22:00N 28°27' W 015°34'918.5
2017-Nov-14 21:30N 28°19' W 015°29'918.8
2017-Nov-14 21:01N 28°12' W 015°23'4 7.6
2017-Nov-14 20:30N 28°08' W 015°25'0 0.6
2017-Nov-14 20:00N 28°09' W 015°25'0 0.0
2017-Nov-14 19:30N 28°09' W 015°25'0 0.0
2017-Nov-14 19:00N 28°09' W 015°25'0 0.0
2017-Nov-14 18:30N 28°09' W 015°25'0 0.0
2017-Nov-14 18:00N 28°09' W 015°25'0 0.0
2017-Nov-14 17:30N 28°09' W 015°25'0 0.0
2017-Nov-14 17:00N 28°09' W 015°25'0 0.0
2017-Nov-14 16:30N 28°09' W 015°25'0 0.0
2017-Nov-14 16:00N 28°09' W 015°25'0 0.0
2017-Nov-14 15:31N 28°09' W 015°25'0 0.0
2017-Nov-14 15:01N 28°09' W 015°25'0 0.0
2017-Nov-14 14:31N 28°09' W 015°25'0 0.0
2017-Nov-14 14:01N 28°09' W 015°25'0 0.0
2017-Nov-14 13:31N 28°09' W 015°25'0 0.0
2017-Nov-14 13:01N 28°09' W 015°25'0 0.0
2017-Nov-14 12:31N 28°09' W 015°25'0 0.0
2017-Nov-14 12:00N 28°09' W 015°25'0 0.0
2017-Nov-14 11:31N 28°09' W 015°25'0 0.0
2017-Nov-14 11:00N 28°09' W 015°25'0 0.0
2017-Nov-14 10:31N 28°09' W 015°25'0 0.0
2017-Nov-14 10:01N 28°09' W 015°25'0 0.0
2017-Nov-14 09:31N 28°09' W 015°25'0 0.0
2017-Nov-14 09:01N 28°09' W 015°25'0 0.0
2017-Nov-14 08:30N 28°09' W 015°25'0 0.0
2017-Nov-14 08:00N 28°09' W 015°25'0 0.0
2017-Nov-14 07:30N 28°09' W 015°25'0 0.0
2017-Nov-14 07:00N 28°09' W 015°25'0 0.0
2017-Nov-14 06:30N 28°09' W 015°25'0 0.0
2017-Nov-14 06:00N 28°09' W 015°25'0 0.0
2017-Nov-14 05:30N 28°09' W 015°25'0 0.0
2017-Nov-14 05:00N 28°09' W 015°25'0 0.0
2017-Nov-14 04:30N 28°09' W 015°25'0 0.0
2017-Nov-14 04:00N 28°09' W 015°25'0 0.0
2017-Nov-14 03:30N 28°09' W 015°25'0 0.0
2017-Nov-14 03:00N 28°09' W 015°25'0 0.0
2017-Nov-14 02:30N 28°09' W 015°25'0 0.0
2017-Nov-14 02:00N 28°09' W 015°25'0 0.0
2017-Nov-14 01:31N 28°09' W 015°25'0 0.0
2017-Nov-14 01:00N 28°09' W 015°25'0 0.0
2017-Nov-14 00:31N 28°09' W 015°25'0 0.0
2017-Nov-14 00:01N 28°09' W 015°25'0 0.0
2017-Nov-13 23:30N 28°09' W 015°25'0 0.0
2017-Nov-13 23:01N 28°09' W 015°25'0 0.0
2017-Nov-13 22:31N 28°09' W 015°25'0 0.0
2017-Nov-13 22:00N 28°09' W 015°25'  

Dump ship's entire track history